Time;durP1;ratioP1;P1;durP2;ratioP2;P2;SDS_P1;SDS_P2;PMS_P1;PMS_P2;Temp;Humidity;BMP_temperature;BMP_pressure;BME280_temperature;BME280_humidity;BME280_pressure;Samples;Min_cycle;Max_cycle;Signal;HPM_P1;HPM_P2
2021/05/13 00:02:19;;;;;;;5.90;1.75;;;;;;;16.37;49.53;99603.16;5064454;28;20124;-69
2021/05/13 00:04:46;;;;;;;3.63;1.30;;;;;;;16.46;49.34;99596.31;5063347;28;20114;-70
2021/05/13 00:07:12;;;;;;;5.90;1.58;;;;;;;16.48;49.75;99602.25;5061531;28;20123;-70
2021/05/13 00:09:42;;;;;;;7.70;2.63;;;;;;;16.43;49.55;99594.75;5058635;28;20098;-69
2021/05/13 00:12:25;;;;;;;4.38;1.70;;;;;;;16.48;49.39;99587.31;5069379;28;20120;-70
2021/05/13 00:14:54;;;;;;;7.55;2.22;;;;;;;16.46;49.49;99583.16;5060847;28;20095;-70
2021/05/13 00:17:20;;;;;;;8.63;2.45;;;;;;;16.34;49.87;99584.16;5060291;28;20076;-69
2021/05/13 00:19:47;;;;;;;5.97;2.10;;;;;;;16.37;50.04;99578.66;5062976;28;20036;-68
2021/05/13 00:22:14;;;;;;;6.78;1.80;;;;;;;16.40;49.85;99584.47;5060345;28;20116;-72
2021/05/13 00:24:41;;;;;;;4.82;1.50;;;;;;;16.46;49.78;99577.91;5063838;28;20060;-72
2021/05/13 00:27:09;;;;;;;8.57;2.00;;;;;;;16.46;49.79;99586.63;5058118;28;20128;-72
2021/05/13 00:29:35;;;;;;;7.38;2.08;;;;;;;16.48;50.10;99582.03;5058747;28;20073;-72
2021/05/13 00:32:02;;;;;;;4.10;2.10;;;;;;;16.43;50.43;99578.97;5057867;28;20064;-72
2021/05/13 00:34:29;;;;;;;13.45;2.10;;;;;;;16.48;50.00;99578.59;5056600;28;20102;-72
2021/05/13 00:36:56;;;;;;;7.15;1.98;;;;;;;16.48;50.19;99581.22;5058903;28;20140;-72
2021/05/13 00:39:24;;;;;;;11.13;2.67;;;;;;;16.47;50.24;99569.03;5040262;28;20054;-72
2021/05/13 00:41:51;;;;;;;3.53;1.63;;;;;;;16.50;50.13;99576.66;5061557;28;20041;-72
2021/05/13 00:44:18;;;;;;;5.18;2.33;;;;;;;16.55;50.41;99576.25;5060876;28;20123;-72
2021/05/13 00:46:44;;;;;;;4.18;1.98;;;;;;;16.49;50.55;99572.34;5058971;28;20445;-72
2021/05/13 00:49:15;;;;;;;3.92;2.20;;;;;;;16.50;50.57;99579.28;5060539;28;20033;-72
2021/05/13 00:51:42;;;;;;;6.13;2.00;;;;;;;16.50;50.82;99571.38;5059976;28;20037;-72
2021/05/13 00:54:09;;;;;;;8.70;1.95;;;;;;;16.52;50.62;99576.53;5060207;28;20485;-71
2021/05/13 00:56:36;;;;;;;7.68;1.92;;;;;;;16.53;50.64;99562.41;5064115;28;20044;-71
2021/05/13 00:59:09;;;;;;;5.95;2.08;;;;;;;16.56;50.73;99572.66;5065468;28;20072;-71
2021/05/13 01:04:17;;;;;;;10.65;1.92;;;;;;;16.48;50.96;99563.63;5061693;28;20487;-69
2021/05/13 01:06:46;;;;;;;3.42;1.42;;;;;;;16.54;50.94;99562.28;5064208;28;20510;-72
2021/05/13 01:09:19;;;;;;;11.40;2.75;;;;;;;16.57;50.86;99562.03;5064500;28;20056;-71
2021/05/13 01:11:51;;;;;;;2.65;1.90;;;;;;;16.58;50.69;99563.69;5062288;28;20083;-71
2021/05/13 01:19:43;;;;;;;12.35;2.60;;;;;;;16.46;51.52;99562.94;5070144;28;20036;-71
2021/05/13 01:22:12;;;;;;;5.22;2.17;;;;;;;16.50;51.33;99560.84;5049682;28;20110;-70
2021/05/13 01:24:40;;;;;;;7.97;2.80;;;;;;;16.47;51.45;99561.13;5066712;28;20046;-70
2021/05/13 01:27:07;;;;;;;6.00;1.38;;;;;;;16.45;51.44;99550.72;5061858;28;20052;-70
2021/05/13 01:29:34;;;;;;;5.30;2.25;;;;;;;16.45;51.22;99550.72;5066156;28;20119;-69
2021/05/13 01:32:02;;;;;;;9.35;2.50;;;;;;;16.40;51.20;99547.66;5064018;28;20127;-71
2021/05/13 01:34:29;;;;;;;4.38;1.33;;;;;;;16.44;51.16;99553.50;5064470;28;20037;-73
2021/05/13 01:36:56;;;;;;;7.22;1.83;;;;;;;16.44;51.12;99548.22;5063796;28;20040;-72
2021/05/13 01:39:24;;;;;;;6.03;2.53;;;;;;;16.46;51.43;99548.97;5066164;28;20059;-71
2021/05/13 01:41:51;;;;;;;4.68;1.63;;;;;;;16.44;51.16;99548.22;5065319;28;20132;-72
2021/05/13 01:44:18;;;;;;;5.25;1.67;;;;;;;16.37;51.55;99541.84;5044449;28;20041;-72
2021/05/13 01:46:45;;;;;;;4.15;1.60;;;;;;;16.40;51.51;99547.66;5067609;28;20044;-71
2021/05/13 01:49:21;;;;;;;2.65;1.38;;;;;;;16.42;51.87;99544.91;5061408;28;20391;-73
2021/05/13 01:51:49;;;;;;;5.03;1.80;;;;;;;16.36;52.23;99541.00;5059209;28;20090;-72
2021/05/13 01:54:20;;;;;;;3.95;1.42;;;;;;;16.34;52.06;99531.56;5061590;28;20119;-72
2021/05/13 01:56:47;;;;;;;4.70;2.20;;;;;;;16.34;52.09;99536.81;5063233;28;20443;-71
2021/05/13 01:59:16;;;;;;;5.22;1.70;;;;;;;16.29;52.47;99537.22;5060656;28;20048;-71
2021/05/13 02:01:42;;;;;;;4.07;1.48;;;;;;;16.33;52.58;99540.44;5065409;28;20094;-72
2021/05/13 02:04:09;;;;;;;6.32;2.13;;;;;;;16.31;52.84;99539.75;5061099;28;20041;-71
2021/05/13 02:06:36;;;;;;;5.03;1.67;;;;;;;16.38;52.43;99530.34;5062832;28;20036;-71
2021/05/13 02:09:04;;;;;;;6.25;3.13;;;;;;;16.37;52.52;99526.88;5063375;28;20045;-72
2021/05/13 02:11:31;;;;;;;3.13;1.80;;;;;;;16.33;52.63;99517.59;5063121;28;20040;-72
2021/05/13 02:13:57;;;;;;;4.45;1.63;;;;;;;16.35;52.48;99522.72;5064406;28;20045;-71
2021/05/13 02:16:24;;;;;;;6.07;1.95;;;;;;;16.31;52.78;99522.16;5064649;28;20029;-71
2021/05/13 02:18:51;;;;;;;4.95;1.88;;;;;;;16.28;52.91;99522.41;5063680;28;20045;-71
2021/05/13 02:21:18;;;;;;;5.28;1.85;;;;;;;16.32;53.17;99533.50;5067543;28;20071;-71
2021/05/13 02:23:45;;;;;;;7.10;1.88;;;;;;;16.29;53.04;99526.69;5065417;28;20044;-72
2021/05/13 02:26:13;;;;;;;7.90;1.70;;;;;;;16.32;52.56;99520.34;5062034;28;20115;-72
2021/05/13 02:28:40;;;;;;;5.13;1.52;;;;;;;16.23;52.80;99517.53;5059930;28;20044;-72
2021/05/13 02:31:07;;;;;;;8.50;1.80;;;;;;;16.21;53.14;99513.38;5063450;28;20076;-73
2021/05/13 02:33:34;;;;;;;5.55;1.52;;;;;;;16.14;53.56;99506.97;5065200;28;20087;-72
2021/05/13 02:36:08;;;;;;;4.55;2.30;;;;;;;16.02;53.78;99506.19;5061066;28;20037;-73
2021/05/13 02:38:35;;;;;;;6.57;1.98;;;;;;;16.02;53.78;99508.00;5063119;28;20086;-73
2021/05/13 02:41:02;;;;;;;8.70;1.77;;;;;;;15.97;53.67;99496.06;5063798;28;20571;-73
2021/05/13 02:43:29;;;;;;;3.53;1.15;;;;;;;15.98;53.37;99503.03;5064334;28;20120;-72
2021/05/13 02:45:56;;;;;;;6.63;1.85;;;;;;;16.02;52.91;99498.31;5063314;28;20041;-72
2021/05/13 02:48:23;;;;;;;5.85;1.60;;;;;;;15.86;54.34;99492.69;5063589;28;20561;-72
2021/05/13 02:50:50;;;;;;;2.22;1.60;;;;;;;15.82;54.77;99499.16;5063969;28;20513;-73
2021/05/13 02:53:17;;;;;;;4.18;1.75;;;;;;;15.77;54.99;99490.84;5062616;28;20127;-72
2021/05/13 02:55:44;;;;;;;3.47;2.40;;;;;;;15.74;55.40;99493.72;5064945;28;20136;-73
2021/05/13 02:58:11;;;;;;;8.52;2.50;;;;;;;15.69;56.20;99488.84;5061962;28;20037;-72
2021/05/13 03:00:50;;;;;;;7.10;2.08;;;;;;;15.64;55.54;99489.22;5060158;28;20045;-73
2021/05/13 03:03:18;;;;;;;1.80;1.27;;;;;;;15.61;55.70;99484.22;5065267;28;20078;-73
2021/05/13 03:05:45;;;;;;;4.93;1.40;;;;;;;15.83;55.10;99487.69;5062504;28;20048;-70
2021/05/13 03:08:14;;;;;;;5.85;1.73;;;;;;;15.70;56.92;99482.63;5062249;28;20121;-72
2021/05/13 03:13:13;;;;;;;4.57;1.77;;;;;;;15.62;55.95;99475.34;5058936;28;20052;-73
2021/05/13 03:15:40;;;;;;;1.75;1.30;;;;;;;15.67;55.30;99482.91;5060239;28;20098;-72
2021/05/13 03:18:07;;;;;;;3.90;1.08;;;;;;;15.80;54.38;99482.69;5065685;28;20075;-65
2021/05/13 03:20:44;;;;;;;1.95;1.33;;;;;;;15.58;55.34;99481.00;5066255;28;20033;-64
2021/05/13 03:23:12;;;;;;;5.47;1.85;;;;;;;15.51;55.35;99485.09;5059442;28;20064;-65
2021/05/13 03:25:41;;;;;;;3.33;1.42;;;;;;;15.44;55.66;99474.22;5059459;28;20495;-65
2021/05/13 03:28:09;;;;;;;3.78;1.60;;;;;;;15.43;56.12;99475.19;5062837;28;20461;-64
2021/05/13 03:30:42;;;;;;;14.85;2.78;;;;;;;15.53;55.21;99470.03;5061709;28;20044;-64
2021/05/13 03:33:10;;;;;;;9.68;2.08;;;;;;;15.38;56.54;99475.56;5061535;28;20036;-64
2021/05/13 03:35:37;;;;;;;3.08;1.48;;;;;;;15.49;55.69;99472.06;5058468;28;20119;-65
2021/05/13 03:38:06;;;;;;;4.55;1.50;;;;;;;15.49;55.23;99461.56;5062565;28;20072;-64
2021/05/13 03:40:34;;;;;;;6.28;1.98;;;;;;;15.26;55.65;99471.34;5061931;28;20066;-64
2021/05/13 03:43:03;;;;;;;2.13;1.35;;;;;;;15.33;55.61;99461.16;5047117;28;20044;-64
2021/05/13 03:45:31;;;;;;;3.90;1.90;;;;;;;15.33;56.06;99455.91;5063056;28;20036;-64
2021/05/13 03:48:02;;;;;;;3.53;1.88;;;;;;;15.34;55.68;99461.06;5059296;28;20428;-64
2021/05/13 03:50:35;;;;;;;3.92;1.45;;;;;;;15.45;54.71;99449.66;5061375;28;20036;-64
2021/05/13 03:53:04;;;;;;;2.30;1.40;;;;;;;15.41;54.51;99450.88;5063258;28;20045;-64
2021/05/13 03:55:32;;;;;;;5.80;1.77;;;;;;;15.45;54.41;99449.66;5063082;28;20092;-64
2021/05/13 03:58:00;;;;;;;7.30;1.25;;;;;;;15.23;55.17;99452.38;5072168;28;20098;-64
2021/05/13 04:01:01;;;;;;;4.28;1.60;;;;;;;15.43;54.08;99441.06;5071806;28;20041;-63
2021/05/13 04:03:17;;;;;;;4.10;1.60;;;;;;;15.38;55.76;99443.22;5065462;28;20033;-64
2021/05/13 04:05:45;;;;;;;2.28;1.10;;;;;;;15.30;55.51;99437.78;5067434;28;20457;-62
2021/05/13 04:08:13;;;;;;;2.95;1.40;;;;;;;15.29;56.04;99444.00;5072082;28;20094;-63
2021/05/13 04:10:42;;;;;;;5.55;1.75;;;;;;;15.33;55.76;99437.53;5071486;28;20064;-62
2021/05/13 04:13:13;;;;;;;4.47;1.50;;;;;;;15.48;54.45;99438.88;5068532;28;20482;-61
2021/05/13 04:15:55;;;;;;;5.35;1.58;;;;;;;15.46;54.61;99432.94;5058499;28;20037;-61
2021/05/13 04:18:22;;;;;;;5.57;1.27;;;;;;;15.51;54.37;99430.75;5071518;28;20045;-63
2021/05/13 04:20:49;;;;;;;9.73;1.77;;;;;;;15.46;53.39;99438.19;5072368;28;20037;-62
2021/05/13 04:23:17;;;;;;;9.60;2.33;;;;;;;15.35;54.41;99438.25;5072275;28;20060;-65
2021/05/13 04:25:43;;;;;;;5.55;1.55;;;;;;;15.26;52.61;99436.38;5071845;28;20128;-64
2021/05/13 04:28:10;;;;;;;5.55;1.73;;;;;;;15.34;51.51;99440.03;5071197;28;20143;-64
2021/05/13 04:30:37;;;;;;;1.67;1.30;;;;;;;15.27;53.98;99440.66;5072489;28;20123;-65
2021/05/13 04:33:04;;;;;;;6.60;1.88;;;;;;;15.28;54.02;99447.56;5072051;28;20564;-63
2021/05/13 04:35:31;;;;;;;5.65;1.30;;;;;;;15.32;54.61;99434.06;5071926;28;20086;-63
2021/05/13 04:37:58;;;;;;;3.90;1.52;;;;;;;15.41;54.29;99435.94;5054076;28;20060;-62
2021/05/13 04:40:25;;;;;;;9.93;2.03;;;;;;;15.32;54.37;99430.63;5072257;28;20437;-66
2021/05/13 04:42:53;;;;;;;8.05;1.52;;;;;;;15.28;54.32;99427.41;5072554;28;20044;-65
2021/05/13 04:45:19;;;;;;;2.15;1.08;;;;;;;15.43;54.11;99425.31;5071635;28;20050;-64
2021/05/13 04:48:03;;;;;;;9.30;2.55;;;;;;;15.51;54.39;99432.56;5072141;28;20430;-64
2021/05/13 04:50:30;;;;;;;7.53;1.77;;;;;;;15.46;54.93;99440.81;5071701;28;20127;-63
2021/05/13 04:52:57;;;;;;;4.97;1.75;;;;;;;15.52;55.52;99444.72;5054261;28;20090;-64
2021/05/13 04:55:24;;;;;;;4.18;1.48;;;;;;;15.54;55.27;99434.91;5071587;28;20055;-64
2021/05/13 04:57:51;;;;;;;6.20;1.70;;;;;;;15.60;55.39;99437.84;5071678;28;20098;-66
2021/05/13 05:00:18;;;;;;;6.32;2.63;;;;;;;15.58;54.45;99442.41;5069462;28;20449;-67
2021/05/13 05:02:45;;;;;;;12.45;2.88;;;;;;;15.63;54.33;99442.91;5063175;28;20136;-66
2021/05/13 05:05:12;;;;;;;4.90;1.80;;;;;;;15.67;54.87;99444.31;5063889;28;20065;-65
2021/05/13 05:07:39;;;;;;;7.55;2.08;;;;;;;15.75;55.34;99440.19;5057861;28;20111;-65
2021/05/13 05:10:07;;;;;;;3.63;1.35;;;;;;;15.80;55.61;99443.28;5060281;28;20120;-64
2021/05/13 05:12:34;;;;;;;5.22;1.92;;;;;;;15.87;55.85;99440.00;5055585;28;20090;-65
2021/05/13 05:15:01;;;;;;;7.57;2.30;;;;;;;15.94;55.69;99450.84;5056627;28;20032;-65
2021/05/13 05:17:28;;;;;;;3.58;2.70;;;;;;;15.98;55.99;99444.38;5069789;28;20451;-65
2021/05/13 05:19:55;;;;;;;11.50;2.13;;;;;;;16.04;55.97;99446.47;5064330;28;20483;-62
2021/05/13 05:22:22;;;;;;;2.38;1.60;;;;;;;16.05;56.09;99442.88;5067925;28;20071;-65
2021/05/13 05:24:49;;;;;;;7.13;1.42;;;;;;;16.09;55.94;99443.44;5052283;28;20048;-65
2021/05/13 05:27:16;;;;;;;4.68;2.05;;;;;;;16.11;55.63;99439.72;5069336;28;20063;-63
2021/05/13 05:29:43;;;;;;;3.97;1.67;;;;;;;16.16;54.28;99434.88;5069619;28;20063;-62
2021/05/13 05:32:10;;;;;;;7.70;2.67;;;;;;;16.22;53.55;99434.34;5070958;28;20047;-65
2021/05/13 05:34:37;;;;;;;6.30;2.22;;;;;;;16.34;53.33;99434.25;5060711;28;20044;-66
2021/05/13 05:37:04;;;;;;;8.75;2.35;;;;;;;16.42;53.55;99434.44;5060260;28;20548;-67
2021/05/13 05:39:31;;;;;;;12.07;2.78;;;;;;;16.48;53.41;99436.53;5070351;28;20090;-65
2021/05/13 05:41:58;;;;;;;14.38;2.97;;;;;;;16.60;53.43;99437.25;5073065;28;20039;-63
2021/05/13 05:44:25;;;;;;;5.53;2.10;;;;;;;16.68;53.32;99440.88;5074270;28;20036;-65
2021/05/13 05:46:52;;;;;;;8.35;2.90;;;;;;;16.81;52.88;99435.38;5067214;28;20123;-65
2021/05/13 05:49:19;;;;;;;6.63;2.05;;;;;;;16.94;52.32;99441.25;5060777;28;20055;-65
2021/05/13 05:51:47;;;;;;;9.13;2.92;;;;;;;17.12;52.09;99436.13;5062029;28;20040;-65
2021/05/13 05:54:13;;;;;;;1.92;1.40;;;;;;;17.40;52.21;99439.72;5065910;28;20071;-65
2021/05/13 05:56:41;;;;;;;4.15;1.90;;;;;;;17.65;52.02;99434.84;5065850;28;20040;-65
2021/05/13 05:59:07;;;;;;;5.03;1.98;;;;;;;18.02;50.56;99445.47;5061427;28;20057;-66
2021/05/13 06:01:37;;;;;;;4.35;2.20;;;;;;;18.11;50.39;99441.97;5061070;28;20119;-66
2021/05/13 06:04:07;;;;;;;4.70;2.22;;;;;;;18.09;50.25;99443.91;5063723;28;20532;-65
2021/05/13 06:06:35;;;;;;;6.88;1.98;;;;;;;18.15;50.01;99443.31;5058517;28;20044;-67
2021/05/13 06:09:02;;;;;;;5.90;1.98;;;;;;;18.23;49.94;99440.81;5064158;28;20200;-65
2021/05/13 06:11:28;;;;;;;5.95;1.85;;;;;;;18.65;48.97;99442.13;5068142;28;20041;-65
2021/05/13 06:13:55;;;;;;;5.75;2.03;;;;;;;19.13;47.78;99439.22;5047671;28;20402;-65
2021/05/13 06:16:22;;;;;;;6.70;2.13;;;;;;;19.61;45.98;99427.41;5062661;28;20103;-66
2021/05/13 06:18:49;;;;;;;7.38;2.22;;;;;;;20.15;44.99;99425.41;5068720;28;20114;-66
2021/05/13 06:21:16;;;;;;;4.80;1.55;;;;;;;20.58;43.21;99429.75;5065873;28;20029;-66
2021/05/13 06:23:49;;;;;;;12.95;1.63;;;;;;;20.52;42.90;99421.63;5064087;28;20045;-66
2021/05/13 06:26:30;;;;;;;3.63;1.27;;;;;;;20.66;43.37;99423.66;5065085;28;20119;-66
2021/05/13 06:29:06;;;;;;;4.88;1.55;;;;;;;21.13;42.36;99420.44;5063619;28;20033;-66
2021/05/13 06:31:37;;;;;;;4.50;1.73;;;;;;;21.16;41.33;99420.94;5062319;28;20487;-66
2021/05/13 06:34:05;;;;;;;6.32;1.30;;;;;;;21.51;41.29;99418.16;5064043;28;20040;-66
2021/05/13 06:36:32;;;;;;;3.22;1.45;;;;;;;21.74;39.98;99418.31;5062873;28;20036;-66
2021/05/13 06:38:59;;;;;;;4.40;1.35;;;;;;;21.82;40.21;99410.31;5059239;28;20053;-69
2021/05/13 06:41:26;;;;;;;3.17;1.10;;;;;;;21.75;39.34;99420.78;5067960;28;20127;-66
2021/05/13 06:43:52;;;;;;;2.50;1.15;;;;;;;22.28;38.87;99415.84;5057600;28;20444;-66
2021/05/13 06:46:22;;;;;;;6.28;1.50;;;;;;;22.51;36.66;99418.56;5061627;28;20124;-65
2021/05/13 06:48:50;;;;;;;6.75;1.35;;;;;;;22.81;37.92;99415.09;5064257;28;20499;-66
2021/05/13 06:51:21;;;;;;;2.13;1.15;;;;;;;23.32;37.44;99410.09;5059319;28;20040;-66
2021/05/13 06:53:48;;;;;;;5.25;1.73;;;;;;;23.53;35.80;99404.91;5066417;28;20044;-66
2021/05/13 06:56:16;;;;;;;2.78;1.10;;;;;;;24.00;35.37;99409.13;5062224;28;20068;-66
2021/05/13 06:58:43;;;;;;;3.38;1.50;;;;;;;24.17;34.47;99408.94;5063332;28;20071;-66
2021/05/13 07:01:10;;;;;;;6.13;1.63;;;;;;;24.45;33.94;99412.63;5062828;28;20133;-66
2021/05/13 07:03:37;;;;;;;5.43;1.42;;;;;;;24.73;33.48;99410.09;5059947;28;20094;-66
2021/05/13 07:06:04;;;;;;;4.07;1.90;;;;;;;25.09;33.23;99403.94;5062437;28;20037;-66
2021/05/13 07:08:31;;;;;;;4.95;1.33;;;;;;;25.66;32.36;99405.63;5063109;28;20123;-66
2021/05/13 07:10:59;;;;;;;4.85;1.63;;;;;;;25.91;31.52;99408.69;5063605;28;20040;-66
2021/05/13 07:13:27;;;;;;;5.60;1.58;;;;;;;26.34;31.20;99403.97;5061454;28;20043;-66
2021/05/13 07:15:54;;;;;;;4.15;1.05;;;;;;;26.59;30.76;99407.00;5065294;28;20060;-66
2021/05/13 07:18:20;;;;;;;3.33;1.17;;;;;;;26.48;30.45;99404.91;5060650;28;20093;-66
2021/05/13 07:20:47;;;;;;;5.25;1.60;;;;;;;27.12;29.83;99404.47;5059340;28;20065;-66
2021/05/13 07:23:14;;;;;;;6.93;1.20;;;;;;;27.14;29.75;99405.09;5060256;28;20448;-66
2021/05/13 07:25:42;;;;;;;6.75;1.25;;;;;;;26.92;29.19;99410.78;5062341;28;20064;-66
2021/05/13 07:28:09;;;;;;;3.38;2.08;;;;;;;27.30;29.34;99395.84;5058266;28;20044;-67
2021/05/13 07:30:36;;;;;;;5.38;1.92;;;;;;;27.45;28.76;99401.00;5064525;28;20113;-66
2021/05/13 07:33:04;;;;;;;5.10;1.42;;;;;;;27.60;28.21;99404.28;5060070;28;20083;-67
2021/05/13 07:35:32;;;;;;;6.20;1.77;;;;;;;25.91;31.88;99408.69;5062775;28;20037;-66
2021/05/13 07:37:59;;;;;;;8.27;2.13;;;;;;;25.96;31.90;99406.25;5065107;28;20507;-66
2021/05/13 07:40:27;;;;;;;4.13;1.42;;;;;;;26.28;32.80;99410.13;5060749;28;20064;-66
2021/05/13 07:42:55;;;;;;;2.47;0.95;;;;;;;25.16;34.12;99409.31;5063086;28;20126;-66
2021/05/13 07:45:22;;;;;;;4.72;1.35;;;;;;;24.22;35.52;99407.38;5067545;28;20119;-66
2021/05/13 07:47:50;;;;;;;2.53;1.27;;;;;;;24.28;35.14;99409.28;5063485;28;20033;-66
2021/05/13 07:50:20;;;;;;;3.85;1.20;;;;;;;24.15;36.01;99405.66;5064201;28;20446;-66
2021/05/13 07:52:48;;;;;;;5.15;1.77;;;;;;;23.24;36.85;99415.50;5063284;28;20109;-66
2021/05/13 07:55:16;;;;;;;7.78;2.05;;;;;;;23.12;37.69;99416.91;5060302;28;20036;-65
2021/05/13 07:57:44;;;;;;;6.35;1.58;;;;;;;23.32;37.01;99414.59;5056490;28;20076;-65
2021/05/13 08:00:12;;;;;;;7.35;1.40;;;;;;;23.08;38.06;99418.28;5043965;28;20056;-65
2021/05/13 08:02:43;;;;;;;6.32;1.77;;;;;;;23.19;37.58;99401.91;5063183;28;20049;-66
2021/05/13 08:05:11;;;;;;;5.93;1.85;;;;;;;23.16;38.10;99404.91;5059093;28;20124;-66
2021/05/13 08:07:38;;;;;;;7.22;1.38;;;;;;;23.13;37.93;99410.59;5058972;28;20036;-66
2021/05/13 08:10:06;;;;;;;6.72;1.35;;;;;;;22.68;39.08;99407.69;5062084;28;20120;-66
2021/05/13 08:12:33;;;;;;;3.67;1.05;;;;;;;22.70;38.62;99410.19;5062923;28;20044;-66
2021/05/13 08:15:00;;;;;;;3.70;1.20;;;;;;;22.66;39.05;99403.56;5063899;28;20216;-65
2021/05/13 08:17:27;;;;;;;5.78;1.40;;;;;;;23.12;39.14;99406.28;5059702;28;20048;-66
2021/05/13 08:19:55;;;;;;;5.43;1.63;;;;;;;23.58;37.43;99400.91;5059401;28;20049;-66
2021/05/13 08:22:25;;;;;;;6.93;2.13;;;;;;;23.35;38.07;99400.94;5062830;28;20052;-65
2021/05/13 08:24:51;;;;;;;4.13;1.50;;;;;;;23.07;38.01;99406.00;5062211;28;20053;-65
2021/05/13 08:27:18;;;;;;;5.03;1.63;;;;;;;23.20;38.32;99400.88;5063709;28;20041;-65
2021/05/13 08:29:45;;;;;;;5.28;1.80;;;;;;;22.95;38.70;99403.72;5065465;28;20498;-66
2021/05/13 08:32:12;;;;;;;4.30;1.67;;;;;;;23.21;38.14;99405.19;5059948;28;20071;-66
2021/05/13 08:34:39;;;;;;;3.78;1.42;;;;;;;22.84;38.27;99395.31;5066037;28;20056;-66
2021/05/13 08:37:06;;;;;;;6.57;2.15;;;;;;;22.91;38.70;99397.13;5059562;28;20454;-66
2021/05/13 08:39:33;;;;;;;5.43;1.90;;;;;;;23.19;38.61;99401.91;5054549;28;20123;-66
2021/05/13 08:42:02;;;;;;;4.63;1.58;;;;;;;23.42;37.93;99386.72;5059398;28;20060;-66
2021/05/13 08:44:30;;;;;;;3.42;1.67;;;;;;;23.13;37.00;99389.31;5055992;28;20512;-66
2021/05/13 08:47:00;;;;;;;6.38;2.00;;;;;;;23.61;37.68;99387.25;5065883;28;20041;-65
2021/05/13 08:49:29;;;;;;;3.03;1.42;;;;;;;23.76;36.54;99390.78;5058855;28;20037;-66
2021/05/13 08:51:56;;;;;;;1.88;1.33;;;;;;;23.71;36.40;99388.66;5063683;28;20120;-66
2021/05/13 08:54:23;;;;;;;3.60;1.65;;;;;;;24.08;36.35;99383.44;5041072;28;20044;-66
2021/05/13 08:56:52;;;;;;;5.45;1.80;;;;;;;24.42;36.48;99389.03;5062032;28;20036;-66
2021/05/13 08:59:20;;;;;;;4.22;1.23;;;;;;;24.24;35.88;99393.91;5061054;28;20041;-66
2021/05/13 09:01:57;;;;;;;2.72;1.60;;;;;;;24.12;35.34;99390.84;5060639;28;20167;-66
2021/05/13 09:04:40;;;;;;;3.10;1.45;;;;;;;24.03;36.40;99387.47;5062817;28;20068;-66
2021/05/13 09:07:21;;;;;;;4.00;1.30;;;;;;;23.96;36.62;99383.06;5047410;28;20049;-66
2021/05/13 09:10:08;;;;;;;5.22;1.92;;;;;;;24.05;36.22;99374.81;5059291;28;20077;-65
2021/05/13 09:12:46;;;;;;;4.07;1.55;;;;;;;23.71;36.48;99382.50;5060801;28;20064;-66
2021/05/13 09:15:20;;;;;;;4.82;1.92;;;;;;;23.90;36.84;99383.78;5065506;28;20036;-65
2021/05/13 09:18:00;;;;;;;6.53;1.90;;;;;;;23.62;36.55;99383.56;5067827;28;20041;-66
2021/05/13 09:20:39;;;;;;;8.60;1.95;;;;;;;23.68;36.34;99377.53;5065236;28;20044;-66
2021/05/13 09:23:23;;;;;;;2.97;1.30;;;;;;;23.57;36.71;99375.31;5065761;28;20040;-65
2021/05/13 09:26:11;;;;;;;4.40;1.70;;;;;;;23.81;37.16;99372.44;5064757;28;20040;-65
2021/05/13 09:28:44;;;;;;;6.63;1.95;;;;;;;23.60;37.50;99369.63;5063280;28;20486;-66
2021/05/13 09:31:36;;;;;;;4.68;2.03;;;;;;;23.75;37.16;99355.34;5059866;28;20064;-66
2021/05/13 09:34:09;;;;;;;5.20;1.67;;;;;;;23.78;36.60;99362.97;5058589;28;20036;-66
2021/05/13 09:36:40;;;;;;;3.40;1.58;;;;;;;24.01;36.32;99354.06;5049348;28;20063;-66
2021/05/13 09:39:26;;;;;;;5.07;1.92;;;;;;;23.51;36.53;99359.06;5064137;28;20479;-65
2021/05/13 09:41:59;;;;;;;2.72;1.50;;;;;;;23.65;35.35;99345.97;5060933;28;20045;-65
2021/05/13 09:44:34;;;;;;;2.33;1.35;;;;;;;23.67;35.43;99344.78;5068053;28;20040;-65
2021/05/13 09:47:14;;;;;;;3.38;1.80;;;;;;;23.71;34.45;99347.94;5065345;28;20954;-66
2021/05/13 09:50:33;;;;;;;2.35;1.38;;;;;;;23.33;34.02;99344.44;5063796;28;20139;-66
2021/05/13 09:53:02;;;;;;;4.55;1.65;;;;;;;23.08;35.21;99338.53;5009305;28;20097;-65
2021/05/13 09:55:31;;;;;;;3.28;1.50;;;;;;;23.41;35.48;99339.88;4998974;28;20042;-66
2021/05/13 09:58:01;;;;;;;3.45;1.42;;;;;;;23.71;35.69;99331.97;5033572;28;20033;-66
2021/05/13 10:00:49;;;;;;;3.28;1.48;;;;;;;23.60;35.76;99332.38;5063811;28;20114;-65
2021/05/13 10:03:19;;;;;;;2.72;1.40;;;;;;;23.48;36.64;99332.81;5058933;28;20036;-66
2021/05/13 10:05:53;;;;;;;5.82;1.90;;;;;;;23.39;36.37;99330.44;5044944;28;20145;-66
2021/05/13 10:08:20;;;;;;;4.93;1.90;;;;;;;23.33;36.94;99337.31;5062286;28;20383;-65
2021/05/13 10:10:48;;;;;;;2.08;1.55;;;;;;;23.23;36.83;99334.91;5063882;28;20089;-65
2021/05/13 10:13:20;;;;;;;3.30;1.50;;;;;;;23.34;35.76;99333.63;5059342;28;20048;-65
2021/05/13 10:15:48;;;;;;;4.75;1.83;;;;;;;23.24;36.23;99335.72;5064081;28;20514;-66
2021/05/13 10:18:31;;;;;;;4.45;1.20;;;;;;;22.77;37.08;99344.72;5067468;28;20044;-66
2021/05/13 10:21:16;;;;;;;5.57;1.30;;;;;;;22.92;36.86;99328.84;5061375;28;20041;-65
2021/05/13 10:23:44;;;;;;;3.25;1.05;;;;;;;23.06;37.78;99319.25;5065826;28;20576;-65
2021/05/13 10:26:41;;;;;;;2.10;1.38;;;;;;;23.36;37.86;99314.84;5063554;28;20106;-65
2021/05/13 10:29:22;;;;;;;7.80;2.17;;;;;;;23.30;36.10;99321.69;5046947;28;21081;-65
2021/05/13 10:32:19;;;;;;;2.78;1.30;;;;;;;23.30;36.09;99319.03;5064394;28;20041;-65
2021/05/13 10:34:59;;;;;;;2.28;1.48;;;;;;;23.27;35.35;99316.72;5062245;28;20135;-65
2021/05/13 10:37:31;;;;;;;6.07;1.88;;;;;;;23.33;35.36;99308.06;5064468;28;20040;-66
2021/05/13 10:40:08;;;;;;;3.58;0.80;;;;;;;23.31;34.74;99307.41;5063570;28;20041;-65
2021/05/13 10:42:36;;;;;;;2.60;0.90;;;;;;;23.29;34.30;99305.94;5060905;28;20041;-65
2021/05/13 10:45:25;;;;;;;3.25;1.08;;;;;;;23.38;33.32;99307.50;5063092;28;20041;-65
2021/05/13 10:48:19;;;;;;;2.30;0.80;;;;;;;23.31;32.17;99296.75;5065353;28;20510;-65
2021/05/13 10:51:07;;;;;;;0.60;0.60;;;;;;;23.27;32.62;99295.47;5062135;28;20056;-65
2021/05/13 10:53:34;;;;;;;3.33;0.80;;;;;;;23.20;33.52;99294.53;5063527;28;20048;-65
2021/05/13 10:56:12;;;;;;;4.38;1.20;;;;;;;22.98;34.47;99286.44;5062885;28;20036;-65
2021/05/13 10:59:04;;;;;;;5.47;1.98;;;;;;;22.88;35.33;99288.50;5065313;28;20537;-65
2021/05/13 11:01:47;;;;;;;3.05;0.93;;;;;;;23.10;34.87;99289.47;5057921;28;20052;-65
2021/05/13 11:04:20;;;;;;;3.40;0.80;;;;;;;22.85;34.74;99291.50;5065319;28;20560;-65
2021/05/13 11:06:51;;;;;;;1.85;0.82;;;;;;;22.95;34.77;99288.63;5067044;28;20051;-65
2021/05/13 11:12:14;;;;;;;3.85;1.17;;;;;;;22.94;34.56;99279.00;5062659;28;20049;-65
2021/05/13 11:14:59;;;;;;;2.30;0.70;;;;;;;22.60;34.52;99274.09;5061229;28;20033;-65
2021/05/13 11:20:30;;;;;;;3.72;1.27;;;;;;;22.60;34.65;99284.72;5065489;28;20055;-65
2021/05/13 11:23:00;;;;;;;1.23;0.90;;;;;;;22.54;34.40;99280.13;5063169;28;20048;-65
2021/05/13 11:25:46;;;;;;;9.02;0.98;;;;;;;22.68;34.93;99276.69;5060543;28;20044;-65
2021/05/13 11:28:19;;;;;;;4.82;1.13;;;;;;;22.38;35.11;99273.09;5065112;28;20094;-64
2021/05/13 11:30:47;;;;;;;1.95;0.63;;;;;;;22.30;35.03;99273.97;5062293;28;20045;-64
2021/05/13 11:33:15;;;;;;;1.95;1.08;;;;;;;22.37;35.95;99274.94;5064655;28;20116;-64
2021/05/13 11:35:42;;;;;;;2.28;1.13;;;;;;;22.53;35.95;99262.53;5050385;28;20483;-65
2021/05/13 11:38:18;;;;;;;1.70;0.90;;;;;;;22.09;35.47;99265.75;5066003;28;20917;-67
2021/05/13 11:40:46;;;;;;;2.33;0.80;;;;;;;22.37;35.34;99266.97;5069054;28;20052;-61
2021/05/13 11:43:24;;;;;;;1.63;0.75;;;;;;;22.47;35.67;99267.53;5076238;28;20044;-61
2021/05/13 11:45:56;;;;;;;1.08;0.70;;;;;;;22.56;36.49;99256.88;5072744;28;20051;-61
2021/05/13 11:48:32;;;;;;;1.45;0.80;;;;;;;22.70;36.25;99258.75;5072308;28;20052;-62
2021/05/13 11:51:10;;;;;;;2.45;1.30;;;;;;;22.56;36.15;99256.88;5072559;28;20079;-63
2021/05/13 11:53:42;;;;;;;4.43;1.00;;;;;;;22.53;36.77;99275.81;5072991;28;20044;-64
2021/05/13 11:56:11;;;;;;;2.25;1.23;;;;;;;22.61;37.17;99273.09;5072283;28;20399;-62
2021/05/13 11:58:54;;;;;;;3.38;1.15;;;;;;;22.63;37.65;99271.09;5072789;28;20048;-62
2021/05/13 12:01:37;;;;;;;8.38;1.30;;;;;;;22.49;42.74;99278.81;5054220;28;20117;-63
2021/05/13 12:04:08;;;;;;;7.47;1.75;;;;;;;22.34;49.11;99288.56;5072632;28;20127;-64
2021/05/13 12:06:47;;;;;;;7.82;2.13;;;;;;;22.31;51.41;99282.75;5072324;28;20050;-63